Time;durP1;ratioP1;P1;durP2;ratioP2;P2;SDS_P1;SDS_P2;PMS_P1;PMS_P2;Temp;Humidity;BMP_temperature;BMP_pressure;BME280_temperature;BME280_humidity;BME280_pressure;Samples;Min_cycle;Max_cycle;Signal;HPM_P1;HPM_P2
2023/01/08 00:01:05;;;;;;;38.50;25.40;;;;;;;4.89;81.22;100174.03;5109552;27;20244;-57
2023/01/08 00:03:32;;;;;;;37.17;25.13;;;;;;;4.84;80.57;100168.69;5110208;27;20693;-57
2023/01/08 00:06:01;;;;;;;40.10;25.20;;;;;;;4.81;81.05;100157.50;5113624;27;20277;-57
2023/01/08 00:08:29;;;;;;;34.47;24.70;;;;;;;4.82;81.24;100169.41;5111882;28;20281;-56
2023/01/08 00:10:56;;;;;;;34.80;23.77;;;;;;;4.67;81.82;100141.50;5111879;28;20188;-57
2023/01/08 00:13:24;;;;;;;34.10;24.37;;;;;;;4.78;81.56;100162.44;5107579;28;20197;-56
2023/01/08 00:15:53;;;;;;;32.73;22.53;;;;;;;4.66;81.00;100142.31;5107752;28;20271;-56
2023/01/08 00:18:20;;;;;;;31.17;22.07;;;;;;;4.76;80.70;100175.94;5112401;28;20265;-56
2023/01/08 00:20:48;;;;;;;25.73;18.93;;;;;;;4.75;81.18;100166.56;5109660;28;20199;-56
2023/01/08 00:23:15;;;;;;;26.07;19.53;;;;;;;4.71;80.99;100169.75;5111865;28;20206;-56
2023/01/08 00:25:43;;;;;;;27.97;18.50;;;;;;;4.70;81.53;100170.53;5111911;28;20204;-56
2023/01/08 00:28:09;;;;;;;23.60;17.80;;;;;;;4.64;81.49;100164.28;5111525;28;20276;-56
2023/01/08 00:30:37;;;;;;;25.57;19.00;;;;;;;4.69;81.28;100163.72;5111952;28;20267;-56
2023/01/08 00:33:05;;;;;;;28.17;19.47;;;;;;;4.70;81.72;100168.00;5112192;28;20201;-56
2023/01/08 00:35:32;;;;;;;23.27;17.53;;;;;;;4.62;80.75;100164.19;5109019;28;20609;-56
2023/01/08 00:37:59;;;;;;;24.73;18.33;;;;;;;4.68;81.44;100168.72;5113717;28;20198;-56
2023/01/08 00:40:26;;;;;;;24.60;18.23;;;;;;;4.69;80.64;100175.56;5113278;28;20187;-56
2023/01/08 00:42:52;;;;;;;24.40;17.33;;;;;;;4.68;81.33;100163.63;5100169;28;20211;-56
2023/01/08 00:45:19;;;;;;;21.97;16.23;;;;;;;4.56;80.96;100168.97;5111653;27;20192;-57
2023/01/08 00:47:46;;;;;;;18.73;15.93;;;;;;;4.51;80.74;100169.53;5117649;27;20568;-57
2023/01/08 00:50:14;;;;;;;20.73;16.30;;;;;;;4.41;82.07;100170.75;5114613;27;20217;-57
2023/01/08 00:52:41;;;;;;;24.90;16.17;;;;;;;4.41;81.78;100165.66;5118500;27;20251;-56
2023/01/08 00:55:08;;;;;;;24.90;17.33;;;;;;;4.41;82.13;100182.59;5121535;27;20245;-56
2023/01/08 00:57:36;;;;;;;24.45;18.58;;;;;;;4.40;82.20;100174.06;5111292;27;20442;-56
2023/01/08 01:00:04;;;;;;;20.67;16.40;;;;;;;4.39;82.37;100176.56;5112692;28;20195;-55
2023/01/08 01:02:31;;;;;;;23.87;16.13;;;;;;;4.35;82.48;100179.72;5113244;28;20305;-55
2023/01/08 01:04:57;;;;;;;23.67;17.13;;;;;;;4.35;82.26;100179.72;5113067;28;20252;-56
2023/01/08 01:07:26;;;;;;;21.43;16.67;;;;;;;4.31;82.70;100173.63;5112847;28;20195;-55
2023/01/08 01:09:52;;;;;;;22.33;16.10;;;;;;;4.31;82.62;100172.75;5112839;28;20197;-55
2023/01/08 01:12:19;;;;;;;25.43;17.43;;;;;;;4.22;82.93;100157.00;5112860;28;20276;-55
2023/01/08 01:14:46;;;;;;;21.63;16.40;;;;;;;4.27;82.85;100161.53;5112489;28;20538;-56
2023/01/08 01:17:13;;;;;;;22.70;15.67;;;;;;;4.25;83.48;100160.59;5112633;28;20196;-56
2023/01/08 01:19:40;;;;;;;22.10;16.90;;;;;;;4.26;83.54;100154.69;5112634;28;20251;-56
2023/01/08 01:22:07;;;;;;;21.47;16.63;;;;;;;4.24;83.29;100157.94;5112799;28;20275;-55
2023/01/08 01:24:35;;;;;;;25.63;20.50;;;;;;;4.26;83.42;100154.69;5111565;28;20431;-56
2023/01/08 01:27:02;;;;;;;23.10;18.67;;;;;;;4.28;82.63;100160.75;5112625;28;20188;-56
2023/01/08 01:29:29;;;;;;;22.30;17.63;;;;;;;4.20;82.98;100141.69;5113148;28;20194;-56
2023/01/08 01:31:56;;;;;;;23.47;18.30;;;;;;;4.27;83.31;100148.81;5112287;28;20203;-56
2023/01/08 01:34:22;;;;;;;26.00;19.33;;;;;;;4.26;83.70;100148.75;5112504;28;20198;-56
2023/01/08 01:36:49;;;;;;;25.67;18.87;;;;;;;4.25;83.42;100147.88;5112526;28;20186;-56
2023/01/08 01:39:16;;;;;;;23.77;19.17;;;;;;;4.22;83.15;100146.84;5113841;28;20183;-56
2023/01/08 01:41:45;;;;;;;25.20;18.73;;;;;;;4.31;83.74;100145.66;5116814;28;20656;-57
2023/01/08 01:44:35;;;;;;;25.67;18.63;;;;;;;4.31;82.65;100142.22;5116706;28;20238;-56
2023/01/08 01:47:05;;;;;;;24.43;18.60;;;;;;;4.28;83.12;100148.03;5116603;28;20236;-56
2023/01/08 01:49:33;;;;;;;24.17;19.27;;;;;;;4.29;82.69;100137.03;5116680;28;20182;-56
2023/01/08 01:52:05;;;;;;;26.27;19.30;;;;;;;4.34;83.34;100140.69;5116592;28;20190;-57
2023/01/08 01:54:33;;;;;;;26.93;18.40;;;;;;;4.33;83.00;100130.47;5116462;28;20221;-57
2023/01/08 01:57:02;;;;;;;28.43;18.90;;;;;;;4.37;82.67;100138.31;5116496;28;20231;-56
2023/01/08 01:59:29;;;;;;;30.00;19.17;;;;;;;4.39;82.68;100130.78;5116864;28;20198;-57
2023/01/08 02:01:57;;;;;;;26.43;19.07;;;;;;;4.44;82.48;100135.28;5114945;28;20199;-57
2023/01/08 02:04:23;;;;;;;25.90;19.37;;;;;;;4.49;81.75;100136.41;5097430;28;20667;-56
2023/01/08 02:06:59;;;;;;;21.87;17.33;;;;;;;4.51;81.48;100132.25;5095826;28;20198;-56
2023/01/08 02:09:40;;;;;;;23.27;17.07;;;;;;;4.51;82.19;100132.25;5096533;28;20233;-56
2023/01/08 02:12:18;;;;;;;23.90;17.37;;;;;;;4.50;81.68;100134.72;5106505;28;20195;-56
2023/01/08 02:15:03;;;;;;;22.77;17.33;;;;;;;4.27;81.35;100099.63;5116294;28;20190;-56
2023/01/08 02:17:39;;;;;;;24.17;17.90;;;;;;;4.48;81.86;100132.09;5116159;28;20660;-55
2023/01/08 02:20:11;;;;;;;22.30;16.63;;;;;;;4.45;81.90;100134.47;5116011;28;20245;-56
2023/01/08 02:23:05;;;;;;;23.10;18.50;;;;;;;4.46;81.45;100132.81;5116270;28;20294;-56
2023/01/08 02:25:45;;;;;;;23.17;16.90;;;;;;;4.43;81.07;100130.13;5115944;28;20197;-56
2023/01/08 02:28:15;;;;;;;24.93;17.57;;;;;;;4.43;81.49;100131.00;5116306;28;20223;-55
2023/01/08 02:30:43;;;;;;;20.97;15.63;;;;;;;4.36;81.68;100126.41;5115934;28;20199;-55
2023/01/08 02:33:11;;;;;;;22.67;16.67;;;;;;;4.32;81.74;100128.69;5115759;28;20542;-56
2023/01/08 02:35:41;;;;;;;23.40;17.23;;;;;;;4.27;82.11;100122.50;5115746;28;20248;-55
2023/01/08 02:38:12;;;;;;;29.37;17.43;;;;;;;4.19;81.65;100132.28;5114341;28;20193;-56
2023/01/08 02:40:48;;;;;;;21.63;16.90;;;;;;;4.19;82.55;100132.28;5095792;28;20249;-55
2023/01/08 02:43:23;;;;;;;24.17;17.40;;;;;;;4.14;82.66;100128.66;5110694;28;20219;-55
2023/01/08 02:45:55;;;;;;;21.80;16.70;;;;;;;4.14;82.54;100119.34;5115829;28;20186;-55
2023/01/08 02:48:33;;;;;;;23.07;16.20;;;;;;;4.14;82.68;100121.91;5115600;28;20233;-55
2023/01/08 02:51:06;;;;;;;25.90;17.40;;;;;;;4.05;81.93;100106.16;5116453;28;20181;-56
2023/01/08 02:53:36;;;;;;;23.37;17.23;;;;;;;4.17;82.34;100129.66;5112767;28;20253;-56
2023/01/08 02:56:07;;;;;;;22.83;16.67;;;;;;;4.17;82.60;100124.56;5094799;28;20193;-56
2023/01/08 02:58:37;;;;;;;25.20;16.03;;;;;;;4.19;81.82;100122.13;5105004;28;20186;-56
2023/01/08 03:01:06;;;;;;;23.87;16.73;;;;;;;4.23;82.19;100121.47;5114351;28;20645;-56
2023/01/08 03:03:34;;;;;;;23.43;16.43;;;;;;;4.24;81.89;100125.78;5114440;28;20213;-56
2023/01/08 03:06:04;;;;;;;20.97;15.40;;;;;;;4.25;81.53;100122.44;5114511;28;20745;-56
2023/01/08 03:08:34;;;;;;;19.03;14.90;;;;;;;4.27;81.57;100122.50;5114666;28;20255;-56
2023/01/08 03:11:04;;;;;;;22.30;14.80;;;;;;;4.21;82.32;100119.66;5115073;28;20662;-56
2023/01/08 03:13:37;;;;;;;23.00;15.00;;;;;;;4.18;82.24;100120.38;5115033;28;20194;-57
2023/01/08 03:16:11;;;;;;;20.87;14.60;;;;;;;4.15;82.20;100120.19;5114935;28;20199;-56
2023/01/08 03:18:45;;;;;;;18.67;13.83;;;;;;;4.13;81.54;100116.72;5115090;28;20189;-56
2023/01/08 03:21:13;;;;;;;15.53;12.23;;;;;;;4.13;81.70;100125.22;5114821;28;20192;-56
2023/01/08 03:23:43;;;;;;;19.00;12.40;;;;;;;4.12;81.94;100126.00;5114852;28;20225;-56
2023/01/08 03:26:12;;;;;;;13.07;10.80;;;;;;;4.07;81.62;100127.44;5114792;28;20669;-56
2023/01/08 03:28:45;;;;;;;13.77;11.40;;;;;;;4.08;82.75;100130.88;5114359;28;20618;-56
2023/01/08 03:31:16;;;;;;;14.97;11.83;;;;;;;4.12;81.56;100125.16;5094526;28;20249;-56
2023/01/08 03:33:44;;;;;;;16.83;12.67;;;;;;;4.13;81.22;100117.59;5094305;28;20189;-56
2023/01/08 03:36:16;;;;;;;16.07;11.67;;;;;;;4.11;81.34;100120.84;5094401;28;20194;-56
2023/01/08 03:38:49;;;;;;;18.27;11.57;;;;;;;4.17;81.30;100111.00;5094324;28;20181;-55
2023/01/08 03:41:20;;;;;;;16.00;12.40;;;;;;;4.20;81.34;100121.34;5094708;28;20604;-55
2023/01/08 03:43:47;;;;;;;17.33;12.10;;;;;;;4.19;80.84;100122.13;5093943;28;20219;-55
2023/01/08 03:46:20;;;;;;;16.30;12.93;;;;;;;4.16;80.56;100112.66;5093933;28;20202;-55
2023/01/08 03:48:49;;;;;;;18.60;13.70;;;;;;;4.18;81.19;100116.16;5094297;28;20193;-56
2023/01/08 03:51:17;;;;;;;17.67;14.52;;;;;;;4.20;81.10;100105.19;5093319;28;20440;-56
2023/01/08 03:53:46;;;;;;;18.53;13.60;;;;;;;4.19;80.88;100106.88;5093976;28;20195;-56
2023/01/08 03:56:13;;;;;;;21.17;14.07;;;;;;;4.21;80.66;100114.56;5093518;28;20224;-56
2023/01/08 03:58:39;;;;;;;19.47;13.80;;;;;;;4.22;80.22;100113.78;5094133;28;20615;-56
2023/01/08 04:01:06;;;;;;;18.17;14.07;;;;;;;4.23;80.58;100113.00;5093645;28;20187;-56
2023/01/08 04:03:34;;;;;;;21.67;13.67;;;;;;;4.21;80.37;100110.34;5093175;28;20218;-56
2023/01/08 04:06:01;;;;;;;18.17;14.33;;;;;;;4.04;80.59;100090.81;5093683;28;20610;-56
2023/01/08 04:08:28;;;;;;;17.97;12.90;;;;;;;4.11;81.96;100119.19;5105217;28;20249;-56
2023/01/08 04:10:55;;;;;;;20.37;14.10;;;;;;;4.14;81.99;100110.84;5113801;28;20188;-57
2023/01/08 04:13:22;;;;;;;21.67;15.37;;;;;;;4.15;81.61;100127.84;5113761;28;20207;-56
2023/01/08 04:15:49;;;;;;;19.47;15.00;;;;;;;4.16;81.77;100122.84;5113933;28;20189;-56
2023/01/08 04:18:16;;;;;;;19.07;14.00;;;;;;;4.18;82.19;100123.78;5113843;28;20260;-56
2023/01/08 04:20:46;;;;;;;17.27;14.33;;;;;;;4.23;81.29;100125.72;5113751;28;20212;-56
2023/01/08 04:23:13;;;;;;;20.37;14.40;;;;;;;4.19;81.93;100119.59;5113228;28;20215;-56
2023/01/08 04:25:40;;;;;;;23.17;15.20;;;;;;;4.24;81.82;100124.88;5113476;28;20192;-56
2023/01/08 04:28:07;;;;;;;19.50;15.47;;;;;;;4.25;81.22;100127.53;5113889;28;20190;-56
2023/01/08 04:30:33;;;;;;;21.37;16.33;;;;;;;4.25;81.30;100132.63;5113507;28;20629;-56
2023/01/08 04:33:00;;;;;;;20.27;16.33;;;;;;;4.23;81.19;100128.25;5113443;28;20191;-56
2023/01/08 04:35:27;;;;;;;22.53;16.37;;;;;;;4.20;81.94;100138.25;5113254;28;20192;-56
2023/01/08 04:37:55;;;;;;;19.10;15.10;;;;;;;4.23;81.15;100136.72;5113491;28;20276;-57
2023/01/08 04:40:22;;;;;;;20.87;15.47;;;;;;;4.10;80.96;100124.19;5113232;28;20670;-55
2023/01/08 04:42:49;;;;;;;22.50;17.27;;;;;;;4.13;81.23;100143.03;5113327;28;20239;-55
2023/01/08 04:45:16;;;;;;;19.93;16.23;;;;;;;4.10;81.42;100139.44;5113497;28;20190;-56
2023/01/08 04:47:43;;;;;;;24.23;17.47;;;;;;;4.00;81.65;100138.09;5113188;28;20198;-55
2023/01/08 04:50:10;;;;;;;25.80;18.20;;;;;;;3.96;82.37;100142.94;5112907;28;20197;-55
2023/01/08 04:52:36;;;;;;;22.90;16.87;;;;;;;3.95;82.04;100143.75;5102600;28;20191;-55
2023/01/08 04:55:06;;;;;;;23.73;17.40;;;;;;;3.89;81.95;100146.84;5092595;28;20650;-56
2023/01/08 04:57:33;;;;;;;23.67;17.00;;;;;;;3.90;82.67;100143.47;5093143;28;20234;-56
2023/01/08 05:00:00;;;;;;;22.40;18.47;;;;;;;3.91;82.38;100145.25;5112956;28;20195;-55
2023/01/08 05:02:26;;;;;;;20.87;15.73;;;;;;;3.78;82.41;100152.13;5112920;28;20208;-55
2023/01/08 05:04:53;;;;;;;23.50;19.33;;;;;;;3.78;83.04;100147.06;5111657;28;21013;-57
2023/01/08 05:07:20;;;;;;;21.40;17.13;;;;;;;3.77;82.26;100160.53;5113463;28;20193;-55
2023/01/08 05:09:47;;;;;;;24.47;15.20;;;;;;;3.66;82.28;100144.72;5112910;28;20188;-56
2023/01/08 05:12:15;;;;;;;21.00;14.90;;;;;;;3.67;82.99;100155.78;5105524;28;20258;-55
2023/01/08 05:14:42;;;;;;;19.57;15.27;;;;;;;3.66;83.03;100159.09;5093134;28;20201;-56
2023/01/08 05:17:08;;;;;;;19.70;13.63;;;;;;;3.60;82.52;100154.56;5112751;28;20185;-56
2023/01/08 05:19:35;;;;;;;18.77;14.30;;;;;;;3.59;82.93;100157.91;5112480;28;20652;-56
2023/01/08 05:22:02;;;;;;;18.53;13.87;;;;;;;3.56;83.15;100166.25;5113167;28;20202;-56
2023/01/08 05:24:29;;;;;;;18.20;15.27;;;;;;;3.51;83.17;100161.69;5112541;28;20218;-56
2023/01/08 05:26:55;;;;;;;21.17;15.17;;;;;;;3.44;82.92;100164.69;5112543;28;20674;-55
2023/01/08 05:29:23;;;;;;;19.60;15.17;;;;;;;3.47;83.25;100167.38;5112666;28;20193;-55
2023/01/08 05:31:50;;;;;;;18.27;13.70;;;;;;;3.45;83.47;100163.91;5112756;28;20549;-56
2023/01/08 05:34:17;;;;;;;18.60;13.77;;;;;;;3.42;83.32;100167.16;5112277;28;20219;-55
2023/01/08 05:36:44;;;;;;;23.93;13.83;;;;;;;3.39;83.83;100168.63;5113036;28;20188;-56
2023/01/08 05:39:11;;;;;;;16.60;13.00;;;;;;;3.37;83.65;100165.16;5113173;28;20187;-55
2023/01/08 05:41:37;;;;;;;19.30;13.80;;;;;;;3.35;83.63;100170.13;5112771;28;20214;-55
2023/01/08 05:44:04;;;;;;;18.97;12.57;;;;;;;3.33;83.99;100166.63;5112208;28;20225;-56
2023/01/08 05:46:33;;;;;;;17.37;12.20;;;;;;;3.30;83.67;100168.13;5112252;28;20251;-56
2023/01/08 05:48:59;;;;;;;14.60;11.27;;;;;;;3.25;84.06;100174.63;5112278;28;20672;-56
2023/01/08 05:51:26;;;;;;;16.80;13.27;;;;;;;3.26;84.27;100171.28;5111711;28;20182;-57
2023/01/08 05:53:53;;;;;;;18.83;12.77;;;;;;;3.31;83.79;100169.88;5112268;28;20209;-57
2023/01/08 05:56:20;;;;;;;17.50;12.60;;;;;;;3.26;83.87;100168.75;5112177;28;20675;-56
2023/01/08 05:58:47;;;;;;;18.17;11.97;;;;;;;3.29;83.96;100167.28;5112372;28;20564;-55
2023/01/08 06:01:15;;;;;;;14.63;11.23;;;;;;;3.31;83.77;100165.69;5112087;28;20190;-56
2023/01/08 06:03:43;;;;;;;15.13;11.70;;;;;;;3.20;84.12;100153.16;5112071;28;20311;-55
2023/01/08 06:06:11;;;;;;;17.07;11.73;;;;;;;3.36;83.27;100171.00;5112144;28;20197;-56
2023/01/08 06:08:38;;;;;;;18.40;14.52;;;;;;;3.47;83.77;100175.00;5111300;28;20913;-57
2023/01/08 06:11:07;;;;;;;16.97;12.13;;;;;;;3.49;83.33;100178.50;5112136;28;20199;-56
2023/01/08 06:13:36;;;;;;;17.33;13.53;;;;;;;3.51;83.44;100174.41;5105831;28;20188;-56
2023/01/08 06:16:03;;;;;;;19.00;13.47;;;;;;;3.49;82.55;100175.97;5104634;28;20248;-56
2023/01/08 06:18:30;;;;;;;17.00;12.83;;;;;;;3.57;82.65;100179.81;5098057;28;20198;-57
2023/01/08 06:20:58;;;;;;;21.83;13.90;;;;;;;3.56;82.67;100184.03;5112032;28;20193;-55
2023/01/08 06:23:25;;;;;;;21.40;13.93;;;;;;;3.66;82.63;100177.75;5110896;28;20610;-56
2023/01/08 06:25:53;;;;;;;17.47;14.00;;;;;;;3.68;82.32;100181.25;5110834;28;20572;-56
2023/01/08 06:28:20;;;;;;;16.87;13.00;;;;;;;3.69;82.06;100174.50;5115235;28;20647;-56
2023/01/08 06:30:47;;;;;;;16.90;12.73;;;;;;;3.75;82.46;100183.34;5115212;28;20179;-56
2023/01/08 06:33:14;;;;;;;17.07;12.63;;;;;;;3.80;81.95;100186.13;5114898;28;20192;-55
2023/01/08 06:35:41;;;;;;;15.47;12.80;;;;;;;3.87;81.58;100188.22;5115253;28;20195;-56
2023/01/08 06:38:09;;;;;;;20.97;14.37;;;;;;;3.83;81.65;100187.16;5115242;28;20243;-56
2023/01/08 06:40:36;;;;;;;16.13;13.33;;;;;;;3.87;81.71;100193.31;5108309;27;20186;-56
2023/01/08 06:43:04;;;;;;;18.13;13.73;;;;;;;3.97;81.51;100185.38;5104577;28;20256;-56
2023/01/08 06:45:31;;;;;;;17.50;13.23;;;;;;;4.09;81.43;100197.03;5115697;28;20638;-56
2023/01/08 06:48:01;;;;;;;17.07;13.07;;;;;;;4.15;80.80;100201.56;5110802;28;20661;-57
2023/01/08 06:50:28;;;;;;;17.40;13.37;;;;;;;4.17;80.00;100198.31;5095138;28;20188;-57
2023/01/08 06:52:55;;;;;;;17.47;12.67;;;;;;;4.30;79.81;100211.69;5094807;28;20557;-56
2023/01/08 06:55:24;;;;;;;16.30;12.47;;;;;;;4.73;79.36;100208.00;5094591;28;20196;-56
2023/01/08 06:57:53;;;;;;;19.63;13.27;;;;;;;4.90;77.40;100209.72;5094919;28;20226;-56
2023/01/08 07:00:21;;;;;;;15.90;12.90;;;;;;;4.85;76.10;100205.19;5094813;28;20187;-56
2023/01/08 07:02:48;;;;;;;16.00;11.97;;;;;;;4.74;76.16;100214.84;5094783;28;20218;-56
2023/01/08 07:05:14;;;;;;;22.27;13.93;;;;;;;4.65;77.34;100216.91;5094663;28;20593;-56
2023/01/08 07:07:41;;;;;;;17.87;13.53;;;;;;;4.61;77.89;100220.13;5109194;28;20196;-57
2023/01/08 07:10:09;;;;;;;14.90;12.53;;;;;;;4.62;78.05;100214.22;5114629;28;20198;-56
2023/01/08 07:12:37;;;;;;;19.83;14.07;;;;;;;4.67;77.71;100210.22;5114610;28;20204;-56
2023/01/08 07:15:04;;;;;;;16.30;13.60;;;;;;;4.78;77.38;100215.06;5112519;28;20211;-56
2023/01/08 07:17:32;;;;;;;15.23;12.70;;;;;;;4.77;76.79;100220.09;5114259;28;20200;-56
2023/01/08 07:19:59;;;;;;;19.50;15.00;;;;;;;4.79;76.72;100223.59;5113006;28;20446;-56
2023/01/08 07:22:26;;;;;;;16.00;13.67;;;;;;;4.84;77.13;100229.78;5114333;28;20657;-56
2023/01/08 07:24:52;;;;;;;14.73;12.67;;;;;;;4.87;77.03;100217.19;5111281;28;20223;-56
2023/01/08 07:27:19;;;;;;;19.50;13.63;;;;;;;4.90;76.19;100232.63;5110976;28;20187;-55
2023/01/08 07:29:47;;;;;;;16.13;12.70;;;;;;;4.97;76.60;100227.03;5114675;28;20193;-56
2023/01/08 07:32:14;;;;;;;17.67;14.07;;;;;;;5.03;75.81;100232.44;5114605;28;20219;-56
2023/01/08 07:34:41;;;;;;;20.90;13.57;;;;;;;5.04;75.71;100226.56;5114493;28;20190;-56
2023/01/08 07:37:08;;;;;;;19.03;14.83;;;;;;;5.09;75.41;100227.66;5113477;28;20188;-55
2023/01/08 07:39:34;;;;;;;19.47;14.57;;;;;;;5.12;75.56;100237.13;5113969;28;20189;-56
2023/01/08 07:42:01;;;;;;;22.13;15.87;;;;;;;5.14;75.72;100233.84;5114063;28;20192;-56
2023/01/08 07:44:28;;;;;;;19.27;15.50;;;;;;;5.18;74.84;100242.53;5114059;28;20212;-56
2023/01/08 07:46:56;;;;;;;20.60;15.80;;;;;;;5.23;74.77;100226.66;5114187;28;20188;-56
2023/01/08 07:49:23;;;;;;;19.43;14.80;;;;;;;5.18;74.06;100217.06;5114147;28;20200;-56
2023/01/08 07:51:50;;;;;;;24.93;15.27;;;;;;;5.34;74.17;100237.38;5113975;28;20197;-56
2023/01/08 07:54:16;;;;;;;21.47;15.20;;;;;;;5.38;74.43;100240.97;5114067;28;20662;-56
2023/01/08 07:56:44;;;;;;;22.27;16.67;;;;;;;5.39;74.85;100233.38;5113749;28;20650;-56
2023/01/08 07:59:11;;;;;;;24.50;15.10;;;;;;;5.49;73.99;100234.69;5113812;28;20192;-56
2023/01/08 08:01:37;;;;;;;23.07;16.07;;;;;;;5.55;74.16;100237.56;5113551;28;20200;-56
2023/01/08 08:04:06;;;;;;;17.83;14.47;;;;;;;5.59;74.09;100237.75;5113652;28;20274;-55
2023/01/08 08:06:32;;;;;;;20.77;15.10;;;;;;;5.68;73.21;100232.22;5110004;28;20192;-55
2023/01/08 08:08:59;;;;;;;17.87;13.50;;;;;;;5.78;72.88;100229.28;5108042;28;20189;-57
2023/01/08 08:11:26;;;;;;;20.43;15.03;;;;;;;5.86;73.44;100233.09;5111079;27;20252;-56
2023/01/08 08:13:53;;;;;;;17.57;14.33;;;;;;;5.93;72.76;100232.59;5100725;28;20204;-56
2023/01/08 08:16:20;;;;;;;16.10;14.07;;;;;;;5.98;72.94;100232.81;5099324;28;20198;-56
2023/01/08 08:18:47;;;;;;;21.47;16.07;;;;;;;6.08;72.24;100235.84;5093250;28;20526;-56
2023/01/08 08:21:15;;;;;;;16.37;14.00;;;;;;;6.13;71.55;100226.72;5092970;28;20190;-55
2023/01/08 08:23:41;;;;;;;23.37;15.37;;;;;;;6.19;72.47;100229.56;5092838;28;20193;-56
2023/01/08 08:26:08;;;;;;;22.60;15.13;;;;;;;6.32;70.80;100231.84;5092754;28;20635;-55
2023/01/08 08:28:35;;;;;;;21.93;16.00;;;;;;;6.40;70.66;100225.41;5100091;28;20193;-56
2023/01/08 08:31:02;;;;;;;23.03;16.43;;;;;;;6.55;69.38;100237.97;5107926;28;20200;-56
2023/01/08 08:33:28;;;;;;;26.27;17.60;;;;;;;6.60;69.32;100217.72;5112248;28;20373;-56
2023/01/08 08:35:55;;;;;;;24.90;17.93;;;;;;;6.74;68.75;100232.84;5111759;28;20204;-57
2023/01/08 08:38:25;;;;;;;22.07;16.87;;;;;;;6.80;68.63;100229.69;5112578;28;20193;-57
2023/01/08 08:40:52;;;;;;;21.67;14.60;;;;;;;6.92;68.08;100231.06;5112354;28;20191;-56
2023/01/08 08:43:19;;;;;;;15.43;12.00;;;;;;;7.01;67.82;100233.16;5113107;28;20190;-56
2023/01/08 08:45:46;;;;;;;14.17;12.13;;;;;;;7.09;67.16;100230.09;5112522;28;20225;-56
2023/01/08 08:48:12;;;;;;;15.13;12.27;;;;;;;7.22;66.45;100228.06;5110687;28;20221;-56
2023/01/08 08:50:39;;;;;;;17.80;14.10;;;;;;;7.28;66.37;100234.28;5112535;28;20190;-56
2023/01/08 08:53:07;;;;;;;17.27;12.73;;;;;;;7.36;65.93;100237.19;5100645;28;20194;-56
2023/01/08 08:55:35;;;;;;;15.30;11.50;;;;;;;7.38;64.74;100231.31;5109997;28;20204;-56
2023/01/08 08:58:04;;;;;;;14.02;11.02;;;;;;;7.33;63.67;100209.81;5112329;28;20430;-57
2023/01/08 09:00:32;;;;;;;13.07;10.70;;;;;;;7.47;63.46;100223.13;5112449;28;20196;-56
2023/01/08 09:02:58;;;;;;;14.20;12.23;;;;;;;7.48;63.97;100222.31;5112554;28;20619;-56
2023/01/08 09:05:25;;;;;;;12.50;11.20;;;;;;;7.55;63.19;100222.59;5112303;28;20710;-55
2023/01/08 09:07:53;;;;;;;14.93;11.97;;;;;;;7.58;63.14;100217.63;5112465;28;20183;-55
2023/01/08 09:10:20;;;;;;;15.00;10.70;;;;;;;7.59;61.92;100221.06;5112473;28;20190;-57
2023/01/08 09:12:48;;;;;;;13.83;11.97;;;;;;;7.63;62.94;100211.03;5112681;28;20190;-57
2023/01/08 09:15:15;;;;;;;14.63;10.23;;;;;;;7.58;62.57;100209.94;5112202;28;20194;-57
2023/01/08 09:17:42;;;;;;;10.40;8.90;;;;;;;7.63;61.81;100213.59;5112185;28;20246;-57
2023/01/08 09:20:09;;;;;;;15.50;10.50;;;;;;;7.70;61.86;100210.44;5112175;28;20239;-58
2023/01/08 09:22:36;;;;;;;17.70;10.53;;;;;;;7.71;61.42;100203.63;5112528;28;20186;-57
2023/01/08 09:25:03;;;;;;;12.67;10.50;;;;;;;7.79;61.80;100201.38;5112089;28;20699;-58
2023/01/08 09:27:30;;;;;;;10.60;9.47;;;;;;;7.67;61.49;100169.41;5094246;28;20220;-57
2023/01/08 09:29:58;;;;;;;12.17;8.90;;;;;;;7.87;61.14;100193.19;5112256;28;20185;-57
2023/01/08 09:32:25;;;;;;;12.90;10.20;;;;;;;7.92;60.60;100186.53;5112163;28;20190;-54
2023/01/08 09:34:52;;;;;;;11.53;9.50;;;;;;;7.86;60.20;100164.97;5112107;28;20186;-57
2023/01/08 09:37:19;;;;;;;11.03;9.77;;;;;;;8.04;60.11;100186.13;5112361;28;20186;-56
2023/01/08 09:39:46;;;;;;;12.70;10.23;;;;;;;8.07;59.88;100179.47;5111744;28;20434;-56
2023/01/08 09:42:14;;;;;;;11.90;9.20;;;;;;;8.17;60.21;100171.28;5111846;28;20193;-56
2023/01/08 09:44:44;;;;;;;10.10;8.67;;;;;;;8.25;59.92;100175.00;5112143;28;20186;-56
2023/01/08 09:47:22;;;;;;;10.90;8.33;;;;;;;8.26;58.83;100163.06;5113000;28;20189;-56
2023/01/08 09:49:49;;;;;;;10.43;8.97;;;;;;;8.26;58.71;100142.59;5112572;28;20197;-56
2023/01/08 09:52:17;;;;;;;11.90;9.10;;;;;;;8.43;58.67;100162.03;5112419;28;20607;-56
2023/01/08 09:54:43;;;;;;;13.33;9.87;;;;;;;8.41;58.33;100160.19;5111979;28;20649;-56
2023/01/08 09:57:13;;;;;;;10.70;9.20;;;;;;;8.44;58.67;100153.50;5111693;28;20218;-57
2023/01/08 09:59:40;;;;;;;12.18;10.10;;;;;;;8.60;58.48;100149.78;5111559;28;20441;-55
2023/01/08 10:02:15;;;;;;;11.97;10.47;;;;;;;8.74;57.53;100152.00;5115906;28;20209;-56
2023/01/08 10:04:44;;;;;;;16.23;8.93;;;;;;;8.67;57.15;100147.50;5116120;28;20189;-56
2023/01/08 10:07:20;;;;;;;12.47;9.20;;;;;;;8.74;57.25;100143.44;5115861;28;20668;-56
2023/01/08 10:09:48;;;;;;;10.27;8.77;;;;;;;8.78;57.06;100137.59;5115866;28;20193;-57
2023/01/08 10:12:18;;;;;;;13.97;9.57;;;;;;;8.86;57.07;100138.72;5115611;28;20195;-56
2023/01/08 10:14:48;;;;;;;10.47;8.47;;;;;;;8.95;56.37;100144.19;5116380;28;20564;-56
2023/01/08 10:17:27;;;;;;;11.13;8.67;;;;;;;9.03;56.38;100131.59;5115657;28;20312;-58
2023/01/08 10:19:53;;;;;;;11.30;8.63;;;;;;;9.03;56.12;100111.97;5115768;28;20232;-56
2023/01/08 10:22:23;;;;;;;8.77;7.90;;;;;;;9.20;55.86;100121.03;5114650;28;20193;-60
2023/01/08 10:24:49;;;;;;;10.47;8.50;;;;;;;9.21;55.69;100109.97;5107169;28;20671;-57
2023/01/08 10:27:18;;;;;;;11.67;8.87;;;;;;;9.28;55.83;100113.63;5112522;28;20255;-56
2023/01/08 10:29:44;;;;;;;9.57;8.20;;;;;;;9.33;55.33;100112.94;5115021;28;20190;-56
2023/01/08 10:32:15;;;;;;;11.90;7.90;;;;;;;9.37;55.91;100108.75;5114989;28;20273;-57
2023/01/08 10:34:46;;;;;;;9.93;8.67;;;;;;;9.43;55.66;100103.81;5110268;27;20196;-58
2023/01/08 10:37:23;;;;;;;10.00;9.00;;;;;;;9.50;55.53;100100.63;5114772;27;20235;-56
2023/01/08 10:39:50;;;;;;;12.43;9.17;;;;;;;9.46;55.30;100097.09;5111868;27;20223;-56
2023/01/08 10:42:19;;;;;;;11.30;9.13;;;;;;;9.50;55.42;100095.50;5110138;28;20664;-56
2023/01/08 10:44:56;;;;;;;11.03;8.90;;;;;;;9.47;55.50;100088.59;5113671;27;20197;-58
2023/01/08 10:47:24;;;;;;;10.87;9.27;;;;;;;9.52;55.23;100092.97;5115056;28;20638;-55
2023/01/08 10:49:53;;;;;;;11.80;9.20;;;;;;;9.59;55.04;100082.91;5115093;28;20194;-56
2023/01/08 10:52:26;;;;;;;11.87;9.57;;;;;;;9.63;54.45;100081.31;5115495;28;20190;-56
2023/01/08 10:54:53;;;;;;;11.37;9.17;;;;;;;9.63;54.77;100077.06;5115126;28;20190;-56
2023/01/08 10:57:21;;;;;;;15.03;9.93;;;;;;;9.62;54.86;100071.88;5114679;28;20229;-56
2023/01/08 10:59:48;;;;;;;14.50;9.87;;;;;;;9.56;55.09;100072.56;5114862;28;20687;-56
2023/01/08 11:02:22;;;;;;;11.23;9.43;;;;;;;9.50;55.15;100047.59;5114550;28;20190;-56
2023/01/08 11:04:51;;;;;;;10.70;9.03;;;;;;;9.69;55.21;100056.72;5114917;28;20194;-56
2023/01/08 11:07:23;;;;;;;14.97;9.77;;;;;;;9.82;54.81;100055.38;5114746;28;20187;-56
2023/01/08 11:09:52;;;;;;;11.40;9.10;;;;;;;9.88;54.45;100058.97;5109097;28;20246;-56
2023/01/08 11:12:32;;;;;;;10.20;9.10;;;;;;;9.93;54.51;100051.41;5108416;28;20653;-58
2023/01/08 11:15:00;;;;;;;9.80;8.27;;;;;;;9.91;54.03;100030.84;5112650;28;20196;-57
2023/01/08 11:17:27;;;;;;;11.90;9.67;;;;;;;10.10;53.70;100047.59;5113695;28;20182;-56
2023/01/08 11:19:56;;;;;;;12.00;9.23;;;;;;;10.13;53.33;100034.88;5114023;28;20190;-57
2023/01/08 11:22:26;;;;;;;9.17;8.27;;;;;;;10.24;53.47;100037.72;5113923;28;20280;-57
2023/01/08 11:24:54;;;;;;;12.20;9.47;;;;;;;10.32;53.08;100036.22;5111347;28;20745;-57